createdAt,value
2019-03-22T00:02:35.494Z,79.50
2019-03-22T00:06:42.297Z,84.83
2019-03-22T00:10:48.544Z,77.00
2019-03-22T00:14:54.814Z,71.03
2019-03-22T00:19:01.330Z,66.97
2019-03-22T00:23:07.584Z,61.53
2019-03-22T00:27:16.739Z,53.77
2019-03-22T00:31:21.803Z,50.60
2019-03-22T00:35:27.978Z,49.33
2019-03-22T00:39:34.513Z,49.23
2019-03-22T00:43:40.767Z,48.20
2019-03-22T00:47:47.051Z,46.90
2019-03-22T00:51:53.381Z,44.63
2019-03-22T00:55:59.641Z,52.37
2019-03-22T01:00:06.896Z,50.50
2019-03-22T01:04:13.148Z,46.57
2019-03-22T01:08:19.639Z,47.60
2019-03-22T01:12:25.897Z,48.13
2019-03-22T01:16:32.152Z,50.73
2019-03-22T01:20:38.702Z,46.13
2019-03-22T01:24:44.969Z,44.13
2019-03-22T01:28:51.214Z,47.57
2019-03-22T01:32:57.401Z,49.33
2019-03-22T01:37:03.665Z,55.90
2019-03-22T01:41:10.424Z,50.50
2019-03-22T01:45:18.183Z,51.13
2019-03-22T01:49:24.375Z,48.23
2019-03-22T01:53:30.621Z,46.03
2019-03-22T01:57:36.875Z,47.97
2019-03-22T02:01:43.142Z,50.67
2019-03-22T02:05:49.303Z,49.43
2019-03-22T02:09:55.710Z,49.80
2019-03-22T02:14:01.804Z,44.27
2019-03-22T02:18:08.453Z,45.43
2019-03-22T02:22:14.693Z,47.30
2019-03-22T02:26:20.969Z,48.23
2019-03-22T02:30:27.215Z,46.83
2019-03-22T02:34:33.424Z,45.43
2019-03-22T02:38:39.675Z,52.13
2019-03-22T02:42:46.146Z,47.43
2019-03-22T02:46:52.296Z,49.40
2019-03-22T02:50:58.851Z,49.77
2019-03-22T02:55:05.593Z,49.33
2019-03-22T02:59:11.964Z,46.83
2019-03-22T03:03:18.221Z,48.63
2019-03-22T03:07:24.489Z,52.17
2019-03-22T03:11:31.043Z,53.93
2019-03-22T03:15:37.327Z,53.97
2019-03-22T03:23:49.363Z,53.67
2019-03-22T03:27:55.601Z,55.57
2019-03-22T03:32:01.884Z,53.03
2019-03-22T03:36:08.190Z,55.37
2019-03-22T03:40:15.031Z,53.00
2019-03-22T03:44:21.298Z,51.40
2019-03-22T03:48:27.496Z,51.20
2019-03-22T03:52:33.750Z,51.57
2019-03-22T03:56:40.019Z,48.33
2019-03-22T04:00:46.265Z,45.77
2019-03-22T04:04:52.515Z,51.40
2019-03-22T04:08:58.815Z,49.53
2019-03-22T04:13:05.053Z,48.87
2019-03-22T04:17:11.335Z,51.13
2019-03-22T04:21:17.569Z,49.97
2019-03-22T04:25:23.848Z,49.47
2019-03-22T04:29:30.131Z,46.10
2019-03-22T04:33:36.312Z,47.33
2019-03-22T04:37:42.588Z,49.17
2019-03-22T04:41:48.876Z,52.37
2019-03-22T04:45:57.012Z,48.20
2019-03-22T04:50:03.837Z,49.33
2019-03-22T04:54:11.191Z,48.73
2019-03-22T04:58:19.619Z,49.50
2019-03-22T05:02:26.522Z,52.87
2019-03-22T05:06:35.834Z,53.00
2019-03-22T05:10:42.524Z,49.50
2019-03-22T05:14:49.837Z,51.47
2019-03-22T05:18:59.142Z,51.07
2019-03-22T05:23:07.010Z,52.20
2019-03-22T05:27:14.607Z,52.07
2019-03-22T05:32:00.003Z,57.80
2019-03-22T05:36:06.265Z,52.80
2019-03-22T05:40:12.617Z,52.13
2019-03-22T05:44:19.263Z,51.43
2019-03-22T05:48:25.604Z,52.57
2019-03-22T05:52:31.810Z,52.93
2019-03-22T05:56:38.229Z,58.10
2019-03-22T06:00:44.428Z,53.67
2019-03-22T06:04:50.707Z,59.87
2019-03-22T06:08:57.219Z,65.37
2019-03-22T06:13:03.464Z,70.50
2019-03-22T06:17:09.659Z,70.90
2019-03-22T06:21:15.988Z,73.50
2019-03-22T06:25:22.191Z,82.60
2019-03-22T06:29:28.533Z,87.73
2019-03-22T06:33:34.805Z,92.77
2019-03-22T06:37:41.159Z,88.00
2019-03-22T06:41:47.440Z,86.63
2019-03-22T06:45:53.906Z,85.03
2019-03-22T06:50:00.420Z,87.67
2019-03-22T06:54:07.115Z,90.33
2019-03-22T06:58:13.428Z,92.37
2019-03-22T07:02:19.583Z,93.70
2019-03-22T07:06:28.444Z,95.57
2019-03-22T07:10:35.342Z,93.10
2019-03-22T07:14:41.701Z,91.50
2019-03-22T07:18:47.900Z,98.43
2019-03-22T07:22:54.161Z,100.10
2019-03-22T07:27:00.475Z,72.10
2019-03-22T07:31:06.852Z,75.00
2019-03-22T07:35:13.117Z,73.80
2019-03-22T07:39:19.910Z,80.07
2019-03-22T07:43:26.657Z,69.67
2019-03-22T07:47:32.913Z,76.30
2019-03-22T07:51:39.278Z,85.40
2019-03-22T07:55:45.958Z,73.07
2019-03-22T07:59:52.587Z,60.03
2019-03-22T08:03:59.487Z,47.70
2019-03-22T08:08:05.758Z,43.77
2019-03-22T08:12:12.273Z,38.97
2019-03-22T08:16:18.371Z,29.00
2019-03-22T08:20:24.679Z,22.90
2019-03-22T08:24:30.969Z,23.23
2019-03-22T08:28:37.627Z,22.20
2019-03-22T08:32:44.198Z,20.67
2019-03-22T08:36:51.457Z,19.20
2019-03-22T08:40:57.715Z,19.03
2019-03-22T08:45:04.245Z,18.70
2019-03-22T08:49:10.553Z,20.50
2019-03-22T08:53:16.714Z,18.10
2019-03-22T08:57:24.931Z,17.33
2019-03-22T09:01:31.511Z,19.30
2019-03-22T09:05:38.186Z,17.97
2019-03-22T09:09:44.543Z,16.33
2019-03-22T09:13:53.570Z,15.87
2019-03-22T09:17:58.498Z,15.63
2019-03-22T09:22:05.012Z,14.57
2019-03-22T09:26:11.350Z,12.43
2019-03-22T09:30:17.985Z,13.00
2019-03-22T09:34:33.485Z,13.03
2019-03-22T09:38:32.609Z,11.97
2019-03-22T09:42:38.886Z,12.05
2019-03-22T09:46:45.063Z,11.35
2019-03-22T09:50:51.318Z,12.43
2019-03-22T09:54:57.775Z,12.77
2019-03-22T09:59:04.074Z,11.37
2019-03-22T10:03:10.240Z,11.78
2019-03-22T10:07:16.449Z,11.00
2019-03-22T10:11:22.740Z,10.40
2019-03-22T10:15:29.023Z,10.70
2019-03-22T10:19:35.510Z,10.70
2019-03-22T10:23:41.595Z,9.53
2019-03-22T10:27:48.257Z,10.75
2019-03-22T10:31:54.568Z,10.60
2019-03-22T10:36:00.825Z,11.08
2019-03-22T10:40:08.084Z,10.90
2019-03-22T10:44:14.239Z,11.60
2019-03-22T10:48:20.517Z,11.30
2019-03-22T10:52:26.615Z,11.30
2019-03-22T10:56:32.892Z,11.10
2019-03-22T11:00:39.221Z,11.78
2019-03-22T11:04:45.529Z,12.55
2019-03-22T11:08:51.813Z,12.10
2019-03-22T11:12:58.008Z,10.60
2019-03-22T11:17:04.308Z,11.45
2019-03-22T11:21:10.848Z,12.13
2019-03-22T11:25:17.108Z,10.25
2019-03-22T11:29:23.320Z,10.90
2019-03-22T11:33:29.614Z,11.43
2019-03-22T11:37:35.829Z,11.55
2019-03-22T11:41:42.108Z,9.90
2019-03-22T11:45:48.606Z,11.22
2019-03-22T11:49:55.463Z,11.63
2019-03-22T11:54:01.690Z,11.20
2019-03-22T11:58:07.968Z,9.63
2019-03-22T12:02:22.173Z,9.60
2019-03-22T12:06:23.108Z,9.48
2019-03-22T12:10:29.529Z,8.63
2019-03-22T12:14:35.789Z,8.05
2019-03-22T12:18:42.105Z,7.95
2019-03-22T12:22:48.475Z,8.25
2019-03-22T12:26:54.664Z,8.18
2019-03-22T12:31:01.246Z,7.45
2019-03-22T12:35:09.967Z,7.87
2019-03-22T12:39:16.391Z,7.42
2019-03-22T12:43:22.717Z,6.67
2019-03-22T12:47:29.405Z,7.03
2019-03-22T12:51:35.733Z,6.97
2019-03-22T12:55:42.148Z,7.03
2019-03-22T12:59:48.450Z,6.62
2019-03-22T13:03:54.835Z,6.65
2019-03-22T13:08:01.200Z,6.35
2019-03-22T13:12:07.625Z,6.08
2019-03-22T13:16:14.175Z,5.62
2019-03-22T13:20:20.420Z,4.90
2019-03-22T13:24:27.851Z,4.65
2019-03-22T13:28:34.092Z,5.12
2019-03-22T13:32:40.509Z,4.60
2019-03-22T13:36:46.992Z,4.30
2019-03-22T13:40:53.573Z,4.60
2019-03-22T13:44:59.832Z,4.08
2019-03-22T13:49:06.455Z,4.50
2019-03-22T13:53:12.750Z,4.30
2019-03-22T13:57:18.995Z,4.42
2019-03-22T14:01:25.217Z,4.22
2019-03-22T14:05:31.559Z,4.67
2019-03-22T14:09:37.850Z,4.30
2019-03-22T14:13:44.617Z,3.90
2019-03-22T14:17:50.884Z,3.72
2019-03-22T14:21:57.009Z,4.22
2019-03-22T14:26:03.373Z,3.50
2019-03-22T14:30:10.389Z,3.45
2019-03-22T14:34:19.902Z,3.55
2019-03-22T14:38:26.356Z,3.70
2019-03-22T14:42:32.719Z,3.60
2019-03-22T14:46:39.045Z,3.75
2019-03-22T14:50:45.384Z,3.27
2019-03-22T14:54:51.633Z,2.37
2019-03-22T14:58:57.805Z,2.52
2019-03-22T15:03:06.121Z,2.70
2019-03-22T15:07:19.507Z,3.15
2019-03-22T15:11:20.960Z,3.25
2019-03-22T15:15:54.832Z,2.87
2019-03-22T15:20:32.608Z,3.02
2019-03-22T15:24:57.607Z,3.10
2019-03-22T15:29:22.009Z,2.12
2019-03-22T15:33:50.580Z,2.45
2019-03-22T15:38:27.719Z,2.55
2019-03-22T15:42:34.002Z,2.52
2019-03-22T15:46:40.337Z,2.40
2019-03-22T15:50:46.607Z,2.10
2019-03-22T15:54:52.915Z,2.15
2019-03-22T15:58:59.282Z,1.90
2019-03-22T16:03:06.635Z,2.15
2019-03-22T16:07:12.883Z,1.72
2019-03-22T16:11:19.119Z,2.02
2019-03-22T16:15:36.723Z,2.10
2019-03-22T16:19:46.138Z,2.10
2019-03-22T16:23:52.473Z,2.10
2019-03-22T16:27:59.283Z,1.90
2019-03-22T16:32:05.630Z,2.05
2019-03-22T16:36:12.248Z,2.25
2019-03-22T16:40:24.044Z,2.10
2019-03-22T16:44:26.852Z,2.30
2019-03-22T16:48:33.626Z,2.00
2019-03-22T16:52:39.849Z,2.25
2019-03-22T16:56:46.042Z,1.80
2019-03-22T17:00:52.396Z,1.90
2019-03-22T17:04:58.630Z,2.12
2019-03-22T17:09:06.057Z,2.12
2019-03-22T17:13:12.590Z,1.90
2019-03-22T17:17:18.876Z,1.60
2019-03-22T17:21:25.166Z,1.92
2019-03-22T17:25:31.474Z,2.33
2019-03-22T17:29:37.755Z,2.20
2019-03-22T17:33:43.960Z,2.47
2019-03-22T17:37:50.176Z,1.98
2019-03-22T17:41:56.462Z,2.60
2019-03-22T17:46:02.641Z,1.87
2019-03-22T17:50:09.344Z,2.22
2019-03-22T17:54:15.565Z,2.42
2019-03-22T17:58:21.653Z,2.40
2019-03-22T18:02:27.889Z,2.58
2019-03-22T18:06:34.355Z,2.95
2019-03-22T18:10:40.639Z,3.20
2019-03-22T18:14:46.806Z,3.65
2019-03-22T18:18:53.060Z,3.87
2019-03-22T18:22:59.330Z,3.80
2019-03-22T18:27:05.633Z,3.90
2019-03-22T18:31:11.898Z,4.00
2019-03-22T18:35:18.141Z,3.30
2019-03-22T18:39:24.564Z,3.02
2019-03-22T18:43:30.821Z,2.87
2019-03-22T18:47:37.056Z,2.95
2019-03-22T18:51:43.234Z,4.53
2019-03-22T18:55:49.452Z,4.87
2019-03-22T18:59:55.727Z,6.30
2019-03-22T19:04:01.895Z,13.53
2019-03-22T19:08:08.152Z,14.10
2019-03-22T19:12:14.464Z,25.27
2019-03-22T19:16:20.838Z,23.67
2019-03-22T19:20:27.101Z,21.87
2019-03-22T19:24:33.278Z,17.55
2019-03-22T19:28:39.635Z,17.60
2019-03-22T19:32:45.888Z,15.60
2019-03-22T19:36:52.204Z,16.37
2019-03-22T19:40:58.735Z,14.13
2019-03-22T19:45:05.995Z,12.93
2019-03-22T19:49:12.673Z,10.03
2019-03-22T19:53:18.932Z,10.85
2019-03-22T19:57:25.203Z,9.63
2019-03-22T20:01:31.513Z,9.10
2019-03-22T20:05:38.255Z,8.93
2019-03-22T20:09:44.446Z,8.40
2019-03-22T20:13:50.712Z,8.03
2019-03-22T20:17:56.918Z,8.50
2019-03-22T20:22:03.393Z,7.83
2019-03-22T20:26:09.642Z,7.00
2019-03-22T20:30:16.574Z,7.77
2019-03-22T20:34:22.776Z,6.53
2019-03-22T20:38:29.318Z,7.83
2019-03-22T20:42:35.998Z,8.43
2019-03-22T20:46:42.266Z,9.43
2019-03-22T20:50:48.649Z,8.50
2019-03-22T20:54:55.019Z,8.53
2019-03-22T20:59:01.092Z,8.40
2019-03-22T21:03:07.396Z,8.53
2019-03-22T21:07:13.678Z,8.57
2019-03-22T21:11:20.370Z,9.23
2019-03-22T21:15:26.847Z,8.13
2019-03-22T21:19:33.601Z,8.80
2019-03-22T21:23:39.912Z,8.10
2019-03-22T21:27:46.348Z,9.27
2019-03-22T21:31:52.845Z,9.60
2019-03-22T21:35:59.538Z,9.17
2019-03-22T21:40:06.701Z,9.10
2019-03-22T21:44:13.362Z,10.30
2019-03-22T21:48:19.757Z,9.53
2019-03-22T21:52:25.927Z,9.67
2019-03-22T21:56:32.408Z,9.27
2019-03-22T22:00:39.033Z,9.30
2019-03-22T22:04:45.390Z,9.10
2019-03-22T22:08:51.707Z,9.77
2019-03-22T22:12:58.195Z,9.63
2019-03-22T22:17:04.646Z,10.47
2019-03-22T22:21:10.951Z,10.17
2019-03-22T22:25:17.308Z,10.00
2019-03-22T22:29:25.044Z,10.80
2019-03-22T22:33:31.730Z,14.20
2019-03-22T22:37:38.303Z,14.73
2019-03-22T22:41:44.776Z,17.30
2019-03-22T22:45:51.838Z,17.80
2019-03-22T22:49:58.064Z,17.73
2019-03-22T22:54:04.317Z,17.73
2019-03-22T22:58:10.838Z,19.93
2019-03-22T23:02:18.133Z,21.03
2019-03-22T23:06:24.817Z,21.50
2019-03-22T23:10:31.203Z,22.93
2019-03-22T23:14:37.947Z,27.70
2019-03-22T23:18:44.717Z,26.00
2019-03-22T23:22:51.049Z,24.63
2019-03-22T23:26:57.349Z,25.00
2019-03-22T23:31:03.810Z,26.00
2019-03-22T23:35:11.135Z,27.43
2019-03-22T23:39:17.398Z,27.43
2019-03-22T23:43:23.744Z,26.17
2019-03-22T23:47:30.077Z,27.97
2019-03-22T23:51:36.355Z,24.60
2019-03-22T23:55:42.602Z,25.77
2019-03-22T23:59:48.894Z,26.50
